Terminal Aerodrome Forecast
Issued by NWS

Home | Current Version | Previous Version | Text Only | Print | Product List | Glossary On
Versions: 1 2 3 4 5 6 7 8 9 10 11 12 13 14 15 16 17 18 19 20 21 22 23 24 25 26 27 28 29 30 31 32 33 34 35 36 37 38 39 40 41 42 43 44
000
FTUS43 KDTX 210845 AAA
TAFPTK
TAF AMD
KPTK 210845Z 2109/2206 00000KT 6SM BR SCT250
      TEMPO 2109/2113 3SM BR
     FM211300 09010KT P6SM OVC100
     FM212000 09010KT 6SM -SHRA OVC045
     FM220100 12010KT 6SM -SHRA OVC025=

USA.gov is the U.S. government's official web portal to all federal, state and local government web resources and services.